Norsk, Russia
Current Conditions -  °F | °C
As of 11:30 AM on Sunday 26 Oct 2014 (Local Time) from UHBB Reporting Station
Snow Showers Snow Showers  
Wind Chill: 13°   Ceiling: 200
Heat Index: 28°   Visibility: 6mi
Dew Point: 28°   Wind: 27mph
Humidity: 100%   Direction: 360°N
Pressure: 29.83"   Gusts: 38mph
Location:  52.34°N, 129.91°E
Report Text: UHBB 260230Z 36012G17MPS //// SHSN VV002 M02/M02 Q1010 NOSIGRMK QBB060 QFE740/0987 36691030
Loading
Personal Weather Stations






























Interactive Weather Map
Tropical Storm Tracking
New forecast layout! Learn more

10-Day Weather Forecast

Advertisements
Track Severe Weather on mobile